createdAt,value
2023-03-01T00:00:36.735Z,-2.26
2023-03-01T00:01:36.692Z,-2.28
2023-03-01T00:02:36.761Z,-2.28
2023-03-01T00:03:36.755Z,-2.30
2023-03-01T00:04:36.683Z,-2.30
2023-03-01T00:05:36.671Z,-2.25
2023-03-01T00:06:36.631Z,-2.23
2023-03-01T00:07:36.663Z,-2.18
2023-03-01T00:08:36.606Z,-2.18
2023-03-01T00:09:36.601Z,-2.21
2023-03-01T00:10:36.572Z,-2.19
2023-03-01T00:11:36.560Z,-2.12
2023-03-01T00:12:36.546Z,-2.13
2023-03-01T00:13:36.554Z,-2.10
2023-03-01T00:14:36.531Z,-2.12
2023-03-01T00:15:36.509Z,-2.12
2023-03-01T00:16:36.539Z,-2.08
2023-03-01T00:17:36.487Z,-2.05
2023-03-01T00:18:36.515Z,-2.00
2023-03-01T00:19:36.465Z,-2.07
2023-03-01T00:20:36.449Z,-2.01
2023-03-01T00:21:36.440Z,-2.00
2023-03-01T00:22:36.424Z,-1.97
2023-03-01T00:23:36.421Z,-1.98
2023-03-01T00:24:36.405Z,-2.00
2023-03-01T00:25:36.376Z,-1.92
2023-03-01T00:26:36.362Z,-1.98
2023-03-01T00:27:36.352Z,-1.95
2023-03-01T00:28:36.346Z,-1.98
2023-03-01T00:29:36.335Z,-1.92
2023-03-01T00:30:36.336Z,-1.95
2023-03-01T00:31:36.301Z,-1.92
2023-03-01T00:32:36.311Z,-1.92
2023-03-01T00:33:36.295Z,-1.92
2023-03-01T00:34:36.280Z,-1.97
2023-03-01T00:35:36.292Z,-1.95
2023-03-01T00:36:36.247Z,-2.00
2023-03-01T00:37:36.235Z,-1.94
2023-03-01T00:38:36.222Z,-1.95
2023-03-01T00:39:36.204Z,-1.92
2023-03-01T00:40:36.208Z,-1.92
2023-03-01T00:41:36.175Z,-1.90
2023-03-01T00:42:36.175Z,-1.90
2023-03-01T00:43:36.157Z,-1.87
2023-03-01T00:44:36.159Z,-1.87
2023-03-01T00:45:36.123Z,-1.83
2023-03-01T00:46:36.248Z,-1.84
2023-03-01T00:47:36.096Z,-1.80
2023-03-01T00:48:36.121Z,-1.82
2023-03-01T00:49:36.084Z,-1.84
2023-03-01T00:50:36.074Z,-1.80
2023-03-01T00:51:36.051Z,-1.76
2023-03-01T00:52:36.031Z,-1.74
2023-03-01T00:53:36.020Z,-1.74
2023-03-01T00:54:36.010Z,-1.68
2023-03-01T00:55:35.995Z,-1.71
2023-03-01T00:56:35.994Z,-1.72
2023-03-01T00:57:35.973Z,-1.72
2023-03-01T00:58:35.964Z,-1.71
2023-03-01T00:59:35.948Z,-1.74
2023-03-01T01:00:35.957Z,-1.72
2023-03-01T01:01:35.963Z,-1.71
2023-03-01T01:02:35.985Z,-1.68
2023-03-01T01:03:35.888Z,-1.65
2023-03-01T01:04:35.910Z,-1.61
2023-03-01T01:05:35.862Z,-1.61
2023-03-01T01:06:35.848Z,-1.56
2023-03-01T01:07:35.841Z,-1.58
2023-03-01T01:08:35.822Z,-1.50
2023-03-01T01:09:35.816Z,-1.53
2023-03-01T01:10:35.804Z,-1.48
2023-03-01T01:11:35.796Z,-1.40
2023-03-01T01:12:35.784Z,-1.40
2023-03-01T01:13:35.769Z,-1.37
2023-03-01T01:14:35.764Z,-1.37
2023-03-01T01:15:35.777Z,-1.35
2023-03-01T01:16:35.736Z,-1.32
2023-03-01T01:17:35.702Z,-1.27
2023-03-01T01:18:35.701Z,-1.25
2023-03-01T01:19:35.683Z,-1.25
2023-03-01T01:20:35.687Z,-1.22
2023-03-01T01:21:35.661Z,-1.23
2023-03-01T01:22:35.647Z,-1.20
2023-03-01T01:23:35.623Z,-1.17
2023-03-01T01:24:35.611Z,-1.20
2023-03-01T01:25:35.597Z,-1.15
2023-03-01T01:26:35.605Z,-1.09
2023-03-01T01:27:35.581Z,-1.08
2023-03-01T01:28:35.568Z,-1.07
2023-03-01T01:29:35.550Z,-1.04
2023-03-01T01:30:35.547Z,-1.04
2023-03-01T01:31:35.616Z,-1.01
2023-03-01T01:32:35.518Z,-1.02
2023-03-01T01:33:35.516Z,-0.99
2023-03-01T01:34:35.490Z,-0.99
2023-03-01T01:35:35.520Z,-0.99
2023-03-01T01:36:35.488Z,-0.96
2023-03-01T01:37:35.453Z,-0.97
2023-03-01T01:38:35.439Z,-0.97
2023-03-01T01:39:35.427Z,-0.94
2023-03-01T01:40:35.409Z,-0.94
2023-03-01T01:41:35.402Z,-0.96
2023-03-01T01:42:35.400Z,-0.93
2023-03-01T01:43:35.374Z,-0.94
2023-03-01T01:44:35.359Z,-0.94
2023-03-01T01:45:35.346Z,-0.90
2023-03-01T01:46:35.406Z,-0.91
2023-03-01T01:47:35.322Z,-0.91
2023-03-01T01:48:35.309Z,-0.89
2023-03-01T01:49:35.288Z,-0.86
2023-03-01T01:50:35.284Z,-0.86
2023-03-01T01:51:35.270Z,-0.89
2023-03-01T01:52:35.283Z,-0.82
2023-03-01T01:53:35.245Z,-0.82
2023-03-01T01:54:35.222Z,-0.85
2023-03-01T01:55:35.215Z,-0.85
2023-03-01T01:56:35.206Z,-0.85
2023-03-01T01:57:35.186Z,-0.80
2023-03-01T01:58:35.185Z,-0.83
2023-03-01T01:59:35.173Z,-0.80
2023-03-01T02:00:35.158Z,-0.82
2023-03-01T02:01:35.137Z,-0.78
2023-03-01T02:02:35.257Z,-0.78
2023-03-01T02:03:35.295Z,-0.80
2023-03-01T02:04:35.095Z,-0.75
2023-03-01T02:05:35.083Z,-0.75
2023-03-01T02:06:35.070Z,-0.72
2023-03-01T02:07:35.060Z,-0.72
2023-03-01T02:08:35.080Z,-0.71
2023-03-01T02:09:35.040Z,-0.70
2023-03-01T02:10:35.022Z,-0.70
2023-03-01T02:11:35.003Z,-0.71
2023-03-01T02:12:34.995Z,-0.67
2023-03-01T02:13:34.997Z,-0.65
2023-03-01T02:14:34.968Z,-0.68
2023-03-01T02:15:34.965Z,-0.65
2023-03-01T02:16:35.350Z,-0.65
2023-03-01T02:17:34.934Z,-0.62
2023-03-01T02:18:34.917Z,-0.65
2023-03-01T02:19:34.904Z,-0.64
2023-03-01T02:20:34.879Z,-0.67
2023-03-01T02:21:34.869Z,-0.62
2023-03-01T02:22:34.951Z,-0.61
2023-03-01T02:23:34.867Z,-0.64
2023-03-01T02:24:34.853Z,-0.64
2023-03-01T02:25:34.831Z,-0.67
2023-03-01T02:26:34.802Z,-0.62
2023-03-01T02:27:34.789Z,-0.64
2023-03-01T02:28:34.775Z,-0.64
2023-03-01T02:29:34.792Z,-0.61
2023-03-01T02:30:34.772Z,-0.61
2023-03-01T02:31:34.802Z,-0.61
2023-03-01T02:32:34.724Z,-0.59
2023-03-01T02:33:34.720Z,-0.59
2023-03-01T02:34:34.699Z,-0.56
2023-03-01T02:35:34.786Z,-0.54
2023-03-01T02:36:34.690Z,-0.57
2023-03-01T02:37:34.658Z,-0.61
2023-03-01T02:38:34.647Z,-0.54
2023-03-01T02:39:34.634Z,-0.53
2023-03-01T02:40:34.650Z,-0.59
2023-03-01T02:41:34.626Z,-0.59
2023-03-01T02:42:34.605Z,-0.61
2023-03-01T02:43:34.591Z,-0.61
2023-03-01T02:44:34.579Z,-0.61
2023-03-01T02:45:34.572Z,-0.62
2023-03-01T02:46:34.766Z,-0.62
2023-03-01T02:47:34.546Z,-0.64
2023-03-01T02:48:34.533Z,-0.61
2023-03-01T02:49:34.522Z,-0.57
2023-03-01T02:50:34.498Z,-0.57
2023-03-01T02:51:34.502Z,-0.62
2023-03-01T02:52:34.475Z,-0.64
2023-03-01T02:53:34.457Z,-0.62
2023-03-01T02:54:34.450Z,-0.62
2023-03-01T02:55:34.438Z,-0.61
2023-03-01T02:56:34.438Z,-0.61
2023-03-01T02:57:34.403Z,-0.59
2023-03-01T02:58:34.406Z,-0.61
2023-03-01T02:59:34.390Z,-0.59
2023-03-01T03:00:34.434Z,-0.59
2023-03-01T03:01:34.358Z,-0.59
2023-03-01T03:02:34.341Z,-0.62
2023-03-01T03:03:34.355Z,-0.57
2023-03-01T03:04:34.321Z,-0.59
2023-03-01T03:05:34.300Z,-0.57
2023-03-01T03:06:34.306Z,-0.59
2023-03-01T03:07:34.283Z,-0.62
2023-03-01T03:08:34.343Z,-0.59
2023-03-01T03:09:34.282Z,-0.52
2023-03-01T03:10:34.237Z,-0.56
2023-03-01T03:11:34.225Z,-0.54
2023-03-01T03:12:34.244Z,-0.53
2023-03-01T03:13:34.204Z,-0.53
2023-03-01T03:14:34.193Z,-0.52
2023-03-01T03:15:34.172Z,-0.53
2023-03-01T03:16:34.507Z,-0.50
2023-03-01T03:17:34.144Z,-0.52
2023-03-01T03:18:34.141Z,-0.52
2023-03-01T03:19:34.132Z,-0.47
2023-03-01T03:20:34.120Z,-0.47
2023-03-01T03:21:34.104Z,-0.47
2023-03-01T03:22:34.081Z,-0.44
2023-03-01T03:23:34.072Z,-0.44
2023-03-01T03:24:34.069Z,-0.43
2023-03-01T03:25:34.048Z,-0.38
2023-03-01T03:26:34.044Z,-0.39
2023-03-01T03:27:34.024Z,-0.41
2023-03-01T03:28:34.025Z,-0.41
2023-03-01T03:29:33.997Z,-0.43
2023-03-01T03:30:33.980Z,-0.46
2023-03-01T03:31:34.003Z,-0.49
2023-03-01T03:32:33.974Z,-0.47
2023-03-01T03:33:33.935Z,-0.52
2023-03-01T03:34:33.932Z,-0.53
2023-03-01T03:35:33.974Z,-0.53
2023-03-01T03:36:33.917Z,-0.54
2023-03-01T03:37:33.891Z,-0.50
2023-03-01T03:38:33.870Z,-0.44
2023-03-01T03:39:33.859Z,-0.52
2023-03-01T03:40:33.850Z,-0.50
2023-03-01T03:41:33.834Z,-0.54
2023-03-01T03:42:33.837Z,-0.47
2023-03-01T03:43:33.806Z,-0.50
2023-03-01T03:44:33.827Z,-0.46
2023-03-01T03:45:33.813Z,-0.53
2023-03-01T03:46:34.164Z,-0.50
2023-03-01T03:47:33.763Z,-0.50
2023-03-01T03:48:33.752Z,-0.43
2023-03-01T03:49:33.730Z,-0.50
2023-03-01T03:50:33.729Z,-0.50
2023-03-01T03:51:33.721Z,-0.52
2023-03-01T03:52:33.692Z,-0.50
2023-03-01T03:53:33.682Z,-0.50
2023-03-01T03:54:33.684Z,-0.44
2023-03-01T03:55:33.665Z,-0.38
2023-03-01T03:56:34.045Z,-0.36
2023-03-01T03:57:33.649Z,-0.41
2023-03-01T03:58:33.621Z,-0.52
2023-03-01T03:59:33.601Z,-0.47
2023-03-01T04:00:33.623Z,-0.47
2023-03-01T04:01:33.678Z,-0.49
2023-03-01T04:02:33.604Z,-0.53
2023-03-01T04:03:33.549Z,-0.54
2023-03-01T04:04:33.547Z,-0.49
2023-03-01T04:05:33.533Z,-0.54
2023-03-01T04:06:33.575Z,-0.56
2023-03-01T04:07:33.510Z,-0.50
2023-03-01T04:08:33.499Z,-0.53
2023-03-01T04:09:33.485Z,-0.44
2023-03-01T04:10:33.474Z,-0.59
2023-03-01T04:11:33.455Z,-0.53
2023-03-01T04:12:33.439Z,-0.47
2023-03-01T04:13:33.420Z,-0.43
2023-03-01T04:14:33.415Z,-0.38
2023-03-01T04:15:33.424Z,-0.56
2023-03-01T04:16:33.859Z,-0.44
2023-03-01T04:17:33.377Z,-0.38
2023-03-01T04:18:33.363Z,-0.41
2023-03-01T04:19:33.341Z,-0.56
2023-03-01T04:20:33.333Z,-0.52
2023-03-01T04:21:33.327Z,-0.56
2023-03-01T04:22:33.311Z,-0.43
2023-03-01T04:23:33.288Z,-0.43
2023-03-01T04:24:33.277Z,-0.52
2023-03-01T04:25:33.265Z,-0.35
2023-03-01T04:26:33.457Z,-0.47
2023-03-01T04:27:33.239Z,-0.35
2023-03-01T04:28:33.226Z,-0.44
2023-03-01T04:29:33.217Z,-0.39
2023-03-01T04:30:33.218Z,-0.52
2023-03-01T04:31:33.214Z,-0.56
2023-03-01T04:32:33.234Z,-0.54
2023-03-01T04:33:33.174Z,-0.52
2023-03-01T04:34:33.151Z,-0.54
2023-03-01T04:35:33.316Z,-0.54
2023-03-01T04:36:33.530Z,-0.46
2023-03-01T04:37:33.111Z,-0.50
2023-03-01T04:38:33.100Z,-0.50
2023-03-01T04:39:33.085Z,-0.53
2023-03-01T04:40:33.092Z,-0.52
2023-03-01T04:41:33.060Z,-0.53
2023-03-01T04:42:33.046Z,-0.52
2023-03-01T04:43:33.040Z,-0.56
2023-03-01T04:44:33.031Z,-0.54
2023-03-01T04:45:33.052Z,-0.53
2023-03-01T04:46:33.433Z,-0.43
2023-03-01T04:47:32.993Z,-0.38
2023-03-01T04:48:33.003Z,-0.47
2023-03-01T04:49:32.965Z,-0.47
2023-03-01T04:50:32.954Z,-0.47
2023-03-01T04:51:32.939Z,-0.47
2023-03-01T04:52:32.919Z,-0.52
2023-03-01T04:53:32.913Z,-0.53
2023-03-01T04:54:32.893Z,-0.47
2023-03-01T04:55:32.890Z,-0.50
2023-03-01T04:56:33.278Z,-0.52
2023-03-01T04:57:32.863Z,-0.52
2023-03-01T04:58:32.858Z,-0.49
2023-03-01T04:59:32.848Z,-0.47
2023-03-01T05:00:32.824Z,-0.44
2023-03-01T05:01:32.807Z,-0.46
2023-03-01T05:02:32.856Z,-0.49
2023-03-01T05:03:32.784Z,-0.49
2023-03-01T05:04:32.864Z,-0.50
2023-03-01T05:05:32.753Z,-0.44
2023-03-01T05:06:33.101Z,-0.47
2023-03-01T05:07:32.732Z,-0.46
2023-03-01T05:08:32.724Z,-0.46
2023-03-01T05:09:32.713Z,-0.49
2023-03-01T05:10:32.691Z,-0.46
2023-03-01T05:11:32.682Z,-0.44
2023-03-01T05:12:32.657Z,-0.41
2023-03-01T05:13:32.652Z,-0.44
2023-03-01T05:14:32.639Z,-0.43
2023-03-01T05:15:32.804Z,-0.49
2023-03-01T05:16:35.076Z,-0.49
2023-03-01T05:17:32.607Z,-0.47
2023-03-01T05:18:32.596Z,-0.49
2023-03-01T05:19:32.581Z,-0.47
2023-03-01T05:20:32.588Z,-0.50
2023-03-01T05:21:32.550Z,-0.49
2023-03-01T05:22:32.539Z,-0.50
2023-03-01T05:23:32.540Z,-0.53
2023-03-01T05:24:32.515Z,-0.50
2023-03-01T05:25:32.500Z,-0.54
2023-03-01T05:26:32.505Z,-0.52
2023-03-01T05:27:32.475Z,-0.52
2023-03-01T05:28:32.475Z,-0.53
2023-03-01T05:29:32.450Z,-0.52
2023-03-01T05:30:32.433Z,-0.54
2023-03-01T05:31:32.467Z,-0.59
2023-03-01T05:32:32.409Z,-0.52
2023-03-01T05:33:32.401Z,-0.52
2023-03-01T05:34:32.389Z,-0.50
2023-03-01T05:35:32.446Z,-0.53
2023-03-01T05:36:32.795Z,-0.54
2023-03-01T05:37:32.347Z,-0.59
2023-03-01T05:38:32.323Z,-0.61
2023-03-01T05:39:32.322Z,-0.57
2023-03-01T05:40:32.297Z,-0.62
2023-03-01T05:41:32.283Z,-0.59
2023-03-01T05:42:32.280Z,-0.57
2023-03-01T05:43:32.260Z,-0.56
2023-03-01T05:44:32.253Z,-0.59
2023-03-01T05:45:32.246Z,-0.57
2023-03-01T05:46:32.605Z,-0.59
2023-03-01T05:47:32.218Z,-0.56
2023-03-01T05:48:32.204Z,-0.57
2023-03-01T05:49:32.198Z,-0.62
2023-03-01T05:50:32.172Z,-0.62
2023-03-01T05:51:32.156Z,-0.70
2023-03-01T05:52:32.174Z,-0.67
2023-03-01T05:53:32.139Z,-0.70
2023-03-01T05:54:32.127Z,-0.68
2023-03-01T05:55:32.098Z,-0.68
2023-03-01T05:56:32.443Z,-0.67
2023-03-01T05:57:32.083Z,-0.70
2023-03-01T05:58:32.073Z,-0.70
2023-03-01T05:59:32.052Z,-0.72
2023-03-01T06:00:32.049Z,-0.74
2023-03-01T06:01:32.031Z,-0.70
2023-03-01T06:02:32.023Z,-0.74
2023-03-01T06:03:32.000Z,-0.72
2023-03-01T06:04:32.069Z,-0.68
2023-03-01T06:05:32.085Z,-0.70
2023-03-01T06:06:32.413Z,-0.68
2023-03-01T06:07:31.953Z,-0.68
2023-03-01T06:08:31.977Z,-0.70
2023-03-01T06:09:31.925Z,-0.68
2023-03-01T06:10:31.908Z,-0.77
2023-03-01T06:11:31.901Z,-0.77
2023-03-01T06:12:31.894Z,-0.75
2023-03-01T06:13:31.880Z,-0.75
2023-03-01T06:14:31.868Z,-0.78
2023-03-01T06:15:31.918Z,-0.85
2023-03-01T06:16:32.267Z,-0.78
2023-03-01T06:17:31.824Z,-0.77
2023-03-01T06:18:31.807Z,-0.77
2023-03-01T06:19:31.811Z,-0.71
2023-03-01T06:20:31.792Z,-0.67
2023-03-01T06:21:31.796Z,-0.77
2023-03-01T06:22:31.761Z,-0.74
2023-03-01T06:23:31.752Z,-0.75
2023-03-01T06:24:31.746Z,-0.74
2023-03-01T06:25:31.724Z,-0.72
2023-03-01T06:26:31.998Z,-0.74
2023-03-01T06:27:31.695Z,-0.77
2023-03-01T06:28:31.688Z,-0.78
2023-03-01T06:29:31.662Z,-0.74
2023-03-01T06:30:31.673Z,-0.74
2023-03-01T06:31:31.675Z,-0.82
2023-03-01T06:32:31.631Z,-0.85
2023-03-01T06:33:31.609Z,-0.89
2023-03-01T06:34:31.606Z,-0.91
2023-03-01T06:35:31.691Z,-0.85
2023-03-01T06:36:32.106Z,-0.82
2023-03-01T06:37:31.556Z,-0.80
2023-03-01T06:38:31.543Z,-0.80
2023-03-01T06:39:31.530Z,-0.77
2023-03-01T06:40:31.537Z,-0.71
2023-03-01T06:41:31.503Z,-0.72
2023-03-01T06:42:31.490Z,-0.71
2023-03-01T06:43:31.486Z,-0.67
2023-03-01T06:44:31.471Z,-0.68
2023-03-01T06:45:31.466Z,-0.74
2023-03-01T06:46:31.802Z,-0.75
2023-03-01T06:47:31.437Z,-0.78
2023-03-01T06:48:31.420Z,-0.77
2023-03-01T06:49:31.406Z,-0.75
2023-03-01T06:50:31.452Z,-0.71
2023-03-01T06:51:31.387Z,-0.72
2023-03-01T06:52:31.357Z,-0.70
2023-03-01T06:53:31.356Z,-0.72
2023-03-01T06:54:31.340Z,-0.72
2023-03-01T06:55:31.325Z,-0.82
2023-03-01T06:56:31.684Z,-0.83
2023-03-01T06:57:31.304Z,-0.83
2023-03-01T06:58:31.294Z,-0.83
2023-03-01T06:59:31.282Z,-0.86
2023-03-01T07:00:31.272Z,-0.85
2023-03-01T07:01:31.291Z,-0.90
2023-03-01T07:02:31.306Z,-0.80
2023-03-01T07:03:32.905Z,-0.83
2023-03-01T07:04:31.206Z,-0.82
2023-03-01T07:05:31.191Z,-0.75
2023-03-01T07:06:31.649Z,-0.85
2023-03-01T07:07:31.169Z,-0.80
2023-03-01T07:08:31.160Z,-0.77
2023-03-01T07:09:31.147Z,-0.74
2023-03-01T07:10:31.126Z,-0.75
2023-03-01T07:11:31.113Z,-0.77
2023-03-01T07:12:31.118Z,-0.80
2023-03-01T07:13:31.084Z,-0.82
2023-03-01T07:14:31.070Z,-0.83
2023-03-01T07:15:31.056Z,-0.82
2023-03-01T07:16:31.546Z,-0.82
2023-03-01T07:17:31.040Z,-0.80
2023-03-01T07:18:31.027Z,-0.80
2023-03-01T07:19:31.016Z,-0.80
2023-03-01T07:20:30.997Z,-0.82
2023-03-01T07:21:30.995Z,-0.89
2023-03-01T07:22:30.970Z,-0.90
2023-03-01T07:23:30.992Z,-0.86
2023-03-01T07:24:30.944Z,-0.82
2023-03-01T07:25:30.933Z,-0.86
2023-03-01T07:26:31.238Z,-0.86
2023-03-01T07:27:30.920Z,-0.83
2023-03-01T07:28:30.907Z,-0.80
2023-03-01T07:29:30.873Z,-0.83
2023-03-01T07:30:30.868Z,-0.78
2023-03-01T07:31:30.847Z,-0.78
2023-03-01T07:32:30.997Z,-0.74
2023-03-01T07:33:30.825Z,-0.71
2023-03-01T07:34:30.806Z,-0.75
2023-03-01T07:35:30.872Z,-0.71
2023-03-01T07:36:31.191Z,-0.71
2023-03-01T07:37:30.770Z,-0.72
2023-03-01T07:38:30.769Z,-0.71
2023-03-01T07:39:30.749Z,-0.74
2023-03-01T07:40:30.733Z,-0.71
2023-03-01T07:41:30.724Z,-0.65
2023-03-01T07:42:30.716Z,-0.64
2023-03-01T07:43:30.697Z,-0.64
2023-03-01T07:44:30.708Z,-0.72
2023-03-01T07:45:30.753Z,-0.77
2023-03-01T07:46:30.947Z,-0.78
2023-03-01T07:47:30.643Z,-0.74
2023-03-01T07:48:30.641Z,-0.74
2023-03-01T07:49:30.618Z,-0.75
2023-03-01T07:50:30.606Z,-0.82
2023-03-01T07:51:30.586Z,-0.75
2023-03-01T07:52:30.605Z,-0.78
2023-03-01T07:53:30.568Z,-0.82
2023-03-01T07:54:30.557Z,-0.82
2023-03-01T07:55:30.534Z,-0.82
2023-03-01T07:56:30.957Z,-0.77
2023-03-01T07:57:30.526Z,-0.72
2023-03-01T07:58:30.506Z,-0.77
2023-03-01T07:59:30.509Z,-0.75
2023-03-01T08:00:30.508Z,-0.71
2023-03-01T08:01:30.527Z,-0.75
2023-03-01T08:02:30.442Z,-0.75
2023-03-01T08:03:30.433Z,-0.74
2023-03-01T08:04:30.431Z,-0.74
2023-03-01T08:05:30.432Z,-0.74
2023-03-01T08:06:30.788Z,-0.71
2023-03-01T08:07:30.382Z,-0.71
2023-03-01T08:08:30.367Z,-0.70
2023-03-01T08:09:30.357Z,-0.70
2023-03-01T08:10:30.340Z,-0.70
2023-03-01T08:11:30.347Z,-0.70
2023-03-01T08:12:30.314Z,-0.71
2023-03-01T08:13:30.302Z,-0.65
2023-03-01T08:14:30.278Z,-0.62
2023-03-01T08:15:30.278Z,-0.65
2023-03-01T08:16:30.715Z,-0.67
2023-03-01T08:17:30.239Z,-0.64
2023-03-01T08:18:30.244Z,-0.65
2023-03-01T08:19:30.220Z,-0.59
2023-03-01T08:20:30.202Z,-0.62
2023-03-01T08:21:30.186Z,-0.62
2023-03-01T08:22:30.191Z,-0.68
2023-03-01T08:23:30.165Z,-0.70
2023-03-01T08:24:30.147Z,-0.71
2023-03-01T08:25:30.138Z,-0.67
2023-03-01T08:26:30.574Z,-0.64
2023-03-01T08:27:30.112Z,-0.65
2023-03-01T08:28:30.095Z,-0.65
2023-03-01T08:29:30.094Z,-0.62
2023-03-01T08:30:30.072Z,-0.67
2023-03-01T08:31:30.134Z,-0.67
2023-03-01T08:32:30.137Z,-0.65
2023-03-01T08:33:30.042Z,-0.67
2023-03-01T08:34:30.021Z,-0.68
2023-03-01T08:35:30.048Z,-0.68
2023-03-01T08:36:30.447Z,-0.64
2023-03-01T08:37:29.977Z,-0.59
2023-03-01T08:38:29.964Z,-0.56
2023-03-01T08:39:30.014Z,-0.53
2023-03-01T08:40:29.950Z,-0.59
2023-03-01T08:41:29.940Z,-0.59
2023-03-01T08:42:29.920Z,-0.61
2023-03-01T08:43:29.898Z,-0.64
2023-03-01T08:44:29.907Z,-0.68
2023-03-01T08:45:29.903Z,-0.64
2023-03-01T08:46:30.189Z,-0.65
2023-03-01T08:47:29.849Z,-0.62
2023-03-01T08:48:29.901Z,-0.61
2023-03-01T08:49:29.829Z,-0.56
2023-03-01T08:50:29.807Z,-0.57
2023-03-01T08:51:29.802Z,-0.59
2023-03-01T08:52:29.779Z,-0.64
2023-03-01T08:53:29.779Z,-0.65
2023-03-01T08:54:29.783Z,-0.64
2023-03-01T08:55:29.758Z,-0.61
2023-03-01T08:56:29.989Z,-0.62
2023-03-01T08:57:29.731Z,-0.62
2023-03-01T08:58:29.712Z,-0.56
2023-03-01T08:59:29.697Z,-0.65
2023-03-01T09:00:29.694Z,-0.50
2023-03-01T09:01:29.682Z,-0.52
2023-03-01T09:02:29.698Z,-0.47
2023-03-01T09:03:29.648Z,-0.41
2023-03-01T09:04:29.654Z,-0.41
2023-03-01T09:05:29.618Z,-0.38
2023-03-01T09:06:30.088Z,-0.31
2023-03-01T09:07:29.639Z,-0.29
2023-03-01T09:08:29.625Z,-0.38
2023-03-01T09:09:29.569Z,-0.39
2023-03-01T09:10:29.547Z,-0.46
2023-03-01T09:11:29.558Z,-0.43
2023-03-01T09:12:29.527Z,-0.43
2023-03-01T09:13:29.516Z,-0.44
2023-03-01T09:14:29.502Z,-0.47
2023-03-01T09:15:29.493Z,-0.44
2023-03-01T09:16:30.114Z,-0.39
2023-03-01T09:17:29.467Z,-0.39
2023-03-01T09:18:29.441Z,-0.39
2023-03-01T09:19:29.439Z,-0.46
2023-03-01T09:20:29.447Z,-0.39
2023-03-01T09:21:39.800Z,-0.38
2023-03-01T09:22:30.453Z,-0.39
2023-03-01T09:23:29.395Z,-0.32
2023-03-01T09:24:29.387Z,-0.34
2023-03-01T09:25:29.352Z,-0.36
2023-03-01T09:26:29.913Z,-0.36
2023-03-01T09:27:29.329Z,-0.43
2023-03-01T09:28:30.403Z,-0.36
2023-03-01T09:29:29.307Z,-0.41
2023-03-01T09:30:29.294Z,-0.35
2023-03-01T09:31:29.289Z,-0.34
2023-03-01T09:32:29.296Z,-0.29
2023-03-01T09:33:29.250Z,-0.29
2023-03-01T09:34:29.234Z,-0.35
2023-03-01T09:35:29.270Z,-0.35
2023-03-01T09:36:29.699Z,-0.34
2023-03-01T09:37:29.199Z,-0.38
2023-03-01T09:38:29.191Z,-0.35
2023-03-01T09:39:29.184Z,-0.36
2023-03-01T09:40:29.171Z,-0.26
2023-03-01T09:41:29.148Z,-0.34
2023-03-01T09:42:29.148Z,-0.28
2023-03-01T09:43:29.115Z,-0.28
2023-03-01T09:44:29.112Z,-0.26
2023-03-01T09:45:29.116Z,-0.18
2023-03-01T09:46:29.709Z,-0.17
2023-03-01T09:47:29.064Z,-0.13
2023-03-01T09:48:29.058Z,-0.11
2023-03-01T09:49:29.052Z,-0.20
2023-03-01T09:50:29.032Z,-0.17
2023-03-01T09:51:29.034Z,-0.14
2023-03-01T09:52:29.033Z,-0.10
2023-03-01T09:53:29.005Z,-0.07
2023-03-01T09:54:28.972Z,-0.02
2023-03-01T09:55:28.968Z,0.04
2023-03-01T09:56:29.459Z,0.04
2023-03-01T09:57:28.942Z,0.08
2023-03-01T09:58:28.930Z,0.03
2023-03-01T09:59:28.929Z,0.04
2023-03-01T10:00:28.926Z,0.08
2023-03-01T10:01:29.200Z,0.05
2023-03-01T10:02:28.874Z,0.00
2023-03-01T10:03:28.976Z,0.04
2023-03-01T10:04:28.925Z,0.05
2023-03-01T10:05:28.844Z,0.08
2023-03-01T10:06:34.999Z,0.11
2023-03-01T10:07:29.851Z,0.08
2023-03-01T10:08:28.856Z,0.08
2023-03-01T10:09:28.783Z,0.00
2023-03-01T10:10:28.785Z,-0.06
2023-03-01T10:11:28.784Z,-0.03
2023-03-01T10:12:28.754Z,-0.03
2023-03-01T10:13:28.746Z,0.00
2023-03-01T10:14:28.715Z,-0.02
2023-03-01T10:15:28.766Z,-0.02
2023-03-01T10:16:28.693Z,0.04
2023-03-01T10:17:28.689Z,0.01
2023-03-01T10:18:28.681Z,0.03
2023-03-01T10:19:28.663Z,0.11
2023-03-01T10:20:28.643Z,0.10
2023-03-01T10:21:28.732Z,0.15
2023-03-01T10:22:28.617Z,0.21
2023-03-01T10:23:28.596Z,0.26
2023-03-01T10:24:28.618Z,0.28
2023-03-01T10:25:28.582Z,0.29
2023-03-01T10:26:28.617Z,0.22
2023-03-01T10:27:28.541Z,0.22
2023-03-01T10:28:28.550Z,0.25
2023-03-01T10:29:28.526Z,0.22
2023-03-01T10:30:28.517Z,0.15
2023-03-01T10:31:29.083Z,0.10
2023-03-01T10:32:28.567Z,0.15
2023-03-01T10:33:28.479Z,0.21
2023-03-01T10:34:28.470Z,0.29
2023-03-01T10:35:28.622Z,0.32
2023-03-01T10:36:28.691Z,0.37
2023-03-01T10:37:28.551Z,0.37
2023-03-01T10:38:28.407Z,0.37
2023-03-01T10:39:28.390Z,0.37
2023-03-01T10:40:28.401Z,0.39
2023-03-01T10:41:28.460Z,0.49
2023-03-01T10:42:28.364Z,0.46
2023-03-01T10:43:28.363Z,0.49
2023-03-01T10:44:28.331Z,0.44
2023-03-01T10:45:28.316Z,0.47
2023-03-01T10:46:28.350Z,0.55
2023-03-01T10:47:28.282Z,0.59
2023-03-01T10:48:28.295Z,0.65
2023-03-01T10:49:28.272Z,0.68
2023-03-01T10:50:28.265Z,0.74
2023-03-01T10:51:28.517Z,0.74
2023-03-01T10:52:28.230Z,0.69
2023-03-01T10:53:28.213Z,0.66
2023-03-01T10:54:28.203Z,0.63
2023-03-01T10:55:28.268Z,0.66
2023-03-01T10:56:28.192Z,0.68
2023-03-01T10:57:28.158Z,0.77
2023-03-01T10:58:28.153Z,0.66
2023-03-01T10:59:28.140Z,0.66
2023-03-01T11:00:28.142Z,0.62
2023-03-01T11:01:28.220Z,0.76
2023-03-01T11:02:28.136Z,0.87
2023-03-01T11:03:28.099Z,0.69
2023-03-01T11:04:28.091Z,0.96
2023-03-01T11:05:28.063Z,0.91
2023-03-01T11:06:28.064Z,0.83
2023-03-01T11:07:28.040Z,0.80
2023-03-01T11:08:28.025Z,0.98
2023-03-01T11:09:28.040Z,1.02
2023-03-01T11:10:27.989Z,0.70
2023-03-01T11:11:27.991Z,0.99
2023-03-01T11:12:27.986Z,0.84
2023-03-01T11:13:27.984Z,0.83
2023-03-01T11:14:28.367Z,0.95
2023-03-01T11:15:27.942Z,0.65
2023-03-01T11:16:27.980Z,0.76
2023-03-01T11:17:27.907Z,0.83
2023-03-01T11:18:44.329Z,0.83
2023-03-01T11:19:28.900Z,0.94
2023-03-01T11:20:29.158Z,0.95
2023-03-01T11:21:27.846Z,0.84
2023-03-01T11:22:27.865Z,0.96
2023-03-01T11:23:27.843Z,1.05
2023-03-01T11:24:27.819Z,1.02
2023-03-01T11:25:27.802Z,1.14
2023-03-01T11:26:27.793Z,1.08
2023-03-01T11:27:27.782Z,1.16
2023-03-01T11:28:28.327Z,1.06
2023-03-01T11:29:29.708Z,1.14
2023-03-01T11:30:27.741Z,1.28
2023-03-01T11:31:27.764Z,1.38
2023-03-01T11:32:27.922Z,1.35
2023-03-01T11:33:27.696Z,1.35
2023-03-01T11:34:27.679Z,1.40
2023-03-01T11:35:27.674Z,1.34
2023-03-01T11:36:27.701Z,1.35
2023-03-01T11:37:27.656Z,1.26
2023-03-01T11:38:27.626Z,1.31
2023-03-01T11:39:27.617Z,1.16
2023-03-01T11:40:27.611Z,1.05
2023-03-01T11:41:27.591Z,1.05
2023-03-01T11:42:27.599Z,0.96
2023-03-01T11:43:27.568Z,0.88
2023-03-01T11:44:27.593Z,0.87
2023-03-01T11:45:27.538Z,0.86
2023-03-01T11:46:27.646Z,0.87
2023-03-01T11:47:27.664Z,0.92
2023-03-01T11:48:29.437Z,0.92
2023-03-01T11:49:28.512Z,0.96
2023-03-01T11:50:27.488Z,0.95
2023-03-01T11:51:27.468Z,0.92
2023-03-01T11:52:27.450Z,0.99
2023-03-01T11:53:27.424Z,1.10
2023-03-01T11:54:27.424Z,1.17
2023-03-01T11:55:27.402Z,1.17
2023-03-01T11:56:27.412Z,1.17
2023-03-01T11:57:41.117Z,1.24
2023-03-01T11:58:28.441Z,1.28
2023-03-01T11:59:27.389Z,1.10
2023-03-01T12:00:27.390Z,1.04
2023-03-01T12:01:27.332Z,0.88
2023-03-01T12:02:27.389Z,0.91
2023-03-01T12:03:27.313Z,0.88
2023-03-01T12:04:27.366Z,1.01
2023-03-01T12:05:27.278Z,1.04
2023-03-01T12:06:27.277Z,1.14
2023-03-01T12:07:27.265Z,1.05
2023-03-01T12:08:27.244Z,1.10
2023-03-01T12:09:27.224Z,1.14
2023-03-01T12:10:27.238Z,1.14
2023-03-01T12:11:27.206Z,1.17
2023-03-01T12:12:27.195Z,1.04
2023-03-01T12:13:27.180Z,1.10
2023-03-01T12:14:27.160Z,1.19
2023-03-01T12:15:27.142Z,1.19
2023-03-01T12:16:38.424Z,1.05
2023-03-01T12:17:28.158Z,0.99
2023-03-01T12:18:27.105Z,1.02
2023-03-01T12:19:27.119Z,0.94
2023-03-01T12:20:27.136Z,0.96
2023-03-01T12:21:27.074Z,0.91
2023-03-01T12:22:27.063Z,0.94
2023-03-01T12:23:27.045Z,0.87
2023-03-01T12:24:27.071Z,1.06
2023-03-01T12:25:27.053Z,1.13
2023-03-01T12:26:27.021Z,1.14
2023-03-01T12:27:26.996Z,1.19
2023-03-01T12:28:26.984Z,1.24
2023-03-01T12:29:26.985Z,1.32
2023-03-01T12:30:26.949Z,1.45
2023-03-01T12:31:27.030Z,1.50
2023-03-01T12:32:27.015Z,1.45
2023-03-01T12:33:26.925Z,1.42
2023-03-01T12:34:26.909Z,1.48
2023-03-01T12:35:26.900Z,1.55
2023-03-01T12:36:26.871Z,1.63
2023-03-01T12:37:26.861Z,1.78
2023-03-01T12:38:26.884Z,1.92
2023-03-01T12:39:26.840Z,1.97
2023-03-01T12:40:26.825Z,2.06
2023-03-01T12:41:26.807Z,2.08
2023-03-01T12:42:26.800Z,2.07
2023-03-01T12:43:26.811Z,2.08
2023-03-01T12:44:26.773Z,1.85
2023-03-01T12:45:26.786Z,1.84
2023-03-01T12:46:26.742Z,1.78
2023-03-01T12:47:26.747Z,1.84
2023-03-01T12:48:26.742Z,1.91
2023-03-01T12:49:26.727Z,1.99
2023-03-01T12:50:26.689Z,1.95
2023-03-01T12:51:26.693Z,2.00
2023-03-01T12:52:26.666Z,1.94
2023-03-01T12:53:26.656Z,1.95
2023-03-01T12:54:26.647Z,1.99
2023-03-01T12:55:26.643Z,2.08
2023-03-01T12:56:26.624Z,2.15
2023-03-01T12:57:26.607Z,2.07
2023-03-01T12:58:29.867Z,2.15